sensor_id;sensor_type;location;lat;lon;timestamp;temperature;humidity
19292;DHT22;9779;51.756;7.450;2024-03-08T00:01:48;3.20;1.00
19292;DHT22;9779;51.756;7.450;2024-03-08T00:04:14;3.20;1.00
19292;DHT22;9779;51.756;7.450;2024-03-08T00:06:41;3.20;1.00
19292;DHT22;9779;51.756;7.450;2024-03-08T00:09:07;3.20;1.00
19292;DHT22;9779;51.756;7.450;2024-03-08T00:11:34;3.10;12.80
19292;DHT22;9779;51.756;7.450;2024-03-08T00:14:00;3.10;15.50
19292;DHT22;9779;51.756;7.450;2024-03-08T00:16:26;3.10;41.90
19292;DHT22;9779;51.756;7.450;2024-03-08T00:18:51;3.10;87.60
19292;DHT22;9779;51.756;7.450;2024-03-08T00:21:17;3.10;99.90
19292;DHT22;9779;51.756;7.450;2024-03-08T00:23:43;3.20;99.90
19292;DHT22;9779;51.756;7.450;2024-03-08T00:26:08;3.00;99.90
19292;DHT22;9779;51.756;7.450;2024-03-08T00:28:34;2.90;99.90
19292;DHT22;9779;51.756;7.450;2024-03-08T00:31:00;2.90;99.90
19292;DHT22;9779;51.756;7.450;2024-03-08T00:33:26;2.90;99.90
19292;DHT22;9779;51.756;7.450;2024-03-08T00:35:55;2.90;99.90
19292;DHT22;9779;51.756;7.450;2024-03-08T00:38:21;2.80;99.90
19292;DHT22;9779;51.756;7.450;2024-03-08T00:40:47;2.80;99.90
19292;DHT22;9779;51.756;7.450;2024-03-08T00:43:12;2.80;99.90
19292;DHT22;9779;51.756;7.450;2024-03-08T00:45:38;2.80;99.90
19292;DHT22;9779;51.756;7.450;2024-03-08T00:48:04;2.70;1.00
19292;DHT22;9779;51.756;7.450;2024-03-08T00:50:31;2.60;1.00
19292;DHT22;9779;51.756;7.450;2024-03-08T00:52:56;2.60;1.00
19292;DHT22;9779;51.756;7.450;2024-03-08T00:55:22;2.60;1.00
19292;DHT22;9779;51.756;7.450;2024-03-08T00:57:47;2.60;1.00
19292;DHT22;9779;51.756;7.450;2024-03-08T01:00:13;2.50;1.00
19292;DHT22;9779;51.756;7.450;2024-03-08T01:02:39;2.50;1.00
19292;DHT22;9779;51.756;7.450;2024-03-08T01:05:06;2.50;1.00
19292;DHT22;9779;51.756;7.450;2024-03-08T01:07:34;2.50;26.00
19292;DHT22;9779;51.756;7.450;2024-03-08T01:10:02;2.50;59.30
19292;DHT22;9779;51.756;7.450;2024-03-08T01:12:28;2.50;93.70
19292;DHT22;9779;51.756;7.450;2024-03-08T01:14:55;2.40;99.90
19292;DHT22;9779;51.756;7.450;2024-03-08T01:17:20;2.40;99.90
19292;DHT22;9779;51.756;7.450;2024-03-08T01:19:46;2.40;99.90
19292;DHT22;9779;51.756;7.450;2024-03-08T01:22:11;2.40;99.90
19292;DHT22;9779;51.756;7.450;2024-03-08T01:24:37;2.40;99.90
19292;DHT22;9779;51.756;7.450;2024-03-08T01:27:03;2.40;99.90
19292;DHT22;9779;51.756;7.450;2024-03-08T01:29:29;2.40;99.90
19292;DHT22;9779;51.756;7.450;2024-03-08T01:31:57;2.30;99.90
19292;DHT22;9779;51.756;7.450;2024-03-08T01:34:25;2.40;99.90
19292;DHT22;9779;51.756;7.450;2024-03-08T01:36:54;2.30;99.90
19292;DHT22;9779;51.756;7.450;2024-03-08T01:39:21;2.30;99.90
19292;DHT22;9779;51.756;7.450;2024-03-08T01:41:47;2.30;99.90
19292;DHT22;9779;51.756;7.450;2024-03-08T01:44:13;2.30;99.90
19292;DHT22;9779;51.756;7.450;2024-03-08T01:46:47;2.20;99.90
19292;DHT22;9779;51.756;7.450;2024-03-08T01:49:13;2.20;99.90
19292;DHT22;9779;51.756;7.450;2024-03-08T01:51:40;2.20;99.90
19292;DHT22;9779;51.756;7.450;2024-03-08T01:54:07;2.20;1.00
19292;DHT22;9779;51.756;7.450;2024-03-08T01:56:36;2.10;1.00
19292;DHT22;9779;51.756;7.450;2024-03-08T01:59:02;2.10;1.00
19292;DHT22;9779;51.756;7.450;2024-03-08T02:01:29;2.10;1.00
19292;DHT22;9779;51.756;7.450;2024-03-08T02:03:54;2.10;1.00
19292;DHT22;9779;51.756;7.450;2024-03-08T02:06:20;2.00;1.00
19292;DHT22;9779;51.756;7.450;2024-03-08T02:08:46;2.00;1.00
19292;DHT22;9779;51.756;7.450;2024-03-08T02:11:13;2.10;99.90
19292;DHT22;9779;51.756;7.450;2024-03-08T02:13:39;2.10;1.00
19292;DHT22;9779;51.756;7.450;2024-03-08T02:16:04;2.10;1.00
19292;DHT22;9779;51.756;7.450;2024-03-08T02:18:33;2.00;1.00
19292;DHT22;9779;51.756;7.450;2024-03-08T02:21:00;2.00;1.00
19292;DHT22;9779;51.756;7.450;2024-03-08T02:23:26;2.10;1.00
19292;DHT22;9779;51.756;7.450;2024-03-08T02:25:53;2.00;1.00
19292;DHT22;9779;51.756;7.450;2024-03-08T02:28:19;2.00;1.00
19292;DHT22;9779;51.756;7.450;2024-03-08T02:30:49;2.00;59.40
19292;DHT22;9779;51.756;7.450;2024-03-08T02:33:16;2.00;99.90
19292;DHT22;9779;51.756;7.450;2024-03-08T02:35:46;2.00;35.00
19292;DHT22;9779;51.756;7.450;2024-03-08T02:38:17;2.00;99.90
19292;DHT22;9779;51.756;7.450;2024-03-08T02:40:44;1.90;91.20
19292;DHT22;9779;51.756;7.450;2024-03-08T02:43:11;2.00;99.90
19292;DHT22;9779;51.756;7.450;2024-03-08T02:45:37;2.00;99.90
19292;DHT22;9779;51.756;7.450;2024-03-08T02:48:03;1.90;99.90
19292;DHT22;9779;51.756;7.450;2024-03-08T02:50:29;1.90;99.90
19292;DHT22;9779;51.756;7.450;2024-03-08T02:52:54;1.90;99.90
19292;DHT22;9779;51.756;7.450;2024-03-08T02:55:20;1.90;99.90
19292;DHT22;9779;51.756;7.450;2024-03-08T02:57:46;1.90;99.90
19292;DHT22;9779;51.756;7.450;2024-03-08T03:00:15;1.90;99.90
19292;DHT22;9779;51.756;7.450;2024-03-08T03:02:41;1.90;99.90
19292;DHT22;9779;51.756;7.450;2024-03-08T03:05:08;1.90;99.90
19292;DHT22;9779;51.756;7.450;2024-03-08T03:07:35;1.80;99.90
19292;DHT22;9779;51.756;7.450;2024-03-08T03:10:01;1.80;1.00
19292;DHT22;9779;51.756;7.450;2024-03-08T03:12:31;1.80;99.90
19292;DHT22;9779;51.756;7.450;2024-03-08T03:15:00;1.80;1.00
19292;DHT22;9779;51.756;7.450;2024-03-08T03:17:26;1.80;1.00
19292;DHT22;9779;51.756;7.450;2024-03-08T03:19:52;1.70;1.00
19292;DHT22;9779;51.756;7.450;2024-03-08T03:22:18;1.80;1.00
19292;DHT22;9779;51.756;7.450;2024-03-08T03:24:45;1.80;1.00
19292;DHT22;9779;51.756;7.450;2024-03-08T03:27:14;1.70;1.00
19292;DHT22;9779;51.756;7.450;2024-03-08T03:29:41;1.70;1.00
19292;DHT22;9779;51.756;7.450;2024-03-08T03:32:15;1.70;1.00
19292;DHT22;9779;51.756;7.450;2024-03-08T03:34:41;1.70;1.00
19292;DHT22;9779;51.756;7.450;2024-03-08T03:37:09;1.70;1.00
19292;DHT22;9779;51.756;7.450;2024-03-08T03:39:38;1.70;1.00
19292;DHT22;9779;51.756;7.450;2024-03-08T03:42:19;1.70;1.00
19292;DHT22;9779;51.756;7.450;2024-03-08T03:44:48;1.70;1.00
19292;DHT22;9779;51.756;7.450;2024-03-08T03:47:14;1.60;1.00
19292;DHT22;9779;51.756;7.450;2024-03-08T03:49:43;1.70;1.00
19292;DHT22;9779;51.756;7.450;2024-03-08T03:52:09;1.60;1.00
19292;DHT22;9779;51.756;7.450;2024-03-08T03:54:35;1.60;1.00
19292;DHT22;9779;51.756;7.450;2024-03-08T03:57:01;1.60;1.00
19292;DHT22;9779;51.756;7.450;2024-03-08T03:59:28;1.60;1.00
19292;DHT22;9779;51.756;7.450;2024-03-08T04:01:54;1.60;93.60
19292;DHT22;9779;51.756;7.450;2024-03-08T04:04:20;1.60;44.80
19292;DHT22;9779;51.756;7.450;2024-03-08T04:06:46;1.50;99.90
19292;DHT22;9779;51.756;7.450;2024-03-08T04:09:12;1.50;99.90
19292;DHT22;9779;51.756;7.450;2024-03-08T04:11:38;1.50;99.90
19292;DHT22;9779;51.756;7.450;2024-03-08T04:14:04;1.50;99.90
19292;DHT22;9779;51.756;7.450;2024-03-08T04:16:31;1.50;1.00
19292;DHT22;9779;51.756;7.450;2024-03-08T04:18:57;1.40;99.90
19292;DHT22;9779;51.756;7.450;2024-03-08T04:21:23;1.40;1.00
19292;DHT22;9779;51.756;7.450;2024-03-08T04:23:48;1.50;1.00
19292;DHT22;9779;51.756;7.450;2024-03-08T04:26:14;1.40;1.00
19292;DHT22;9779;51.756;7.450;2024-03-08T04:28:39;1.40;1.00
19292;DHT22;9779;51.756;7.450;2024-03-08T04:31:05;1.30;1.00
19292;DHT22;9779;51.756;7.450;2024-03-08T04:33:32;1.30;51.20
19292;DHT22;9779;51.756;7.450;2024-03-08T04:35:58;1.30;1.00
19292;DHT22;9779;51.756;7.450;2024-03-08T04:38:23;1.30;99.90
19292;DHT22;9779;51.756;7.450;2024-03-08T04:40:50;1.30;9.20
19292;DHT22;9779;51.756;7.450;2024-03-08T04:43:16;1.30;85.60
19292;DHT22;9779;51.756;7.450;2024-03-08T04:45:44;1.30;1.00
19292;DHT22;9779;51.756;7.450;2024-03-08T04:48:09;1.40;1.00
19292;DHT22;9779;51.756;7.450;2024-03-08T04:50:35;1.30;1.00
19292;DHT22;9779;51.756;7.450;2024-03-08T04:53:01;1.30;99.90
19292;DHT22;9779;51.756;7.450;2024-03-08T04:55:26;1.30;60.50
19292;DHT22;9779;51.756;7.450;2024-03-08T04:57:52;1.30;1.00
19292;DHT22;9779;51.756;7.450;2024-03-08T05:00:20;1.30;99.90
19292;DHT22;9779;51.756;7.450;2024-03-08T05:02:46;1.30;73.80
19292;DHT22;9779;51.756;7.450;2024-03-08T05:05:11;1.20;99.90
19292;DHT22;9779;51.756;7.450;2024-03-08T05:07:38;1.20;99.90
19292;DHT22;9779;51.756;7.450;2024-03-08T05:10:06;1.20;99.90
19292;DHT22;9779;51.756;7.450;2024-03-08T05:12:32;1.20;1.00
19292;DHT22;9779;51.756;7.450;2024-03-08T05:14:58;1.20;1.00
19292;DHT22;9779;51.756;7.450;2024-03-08T05:17:24;1.20;1.00
19292;DHT22;9779;51.756;7.450;2024-03-08T05:19:50;1.20;1.00
19292;DHT22;9779;51.756;7.450;2024-03-08T05:22:15;1.20;1.00
19292;DHT22;9779;51.756;7.450;2024-03-08T05:24:41;1.10;1.00
19292;DHT22;9779;51.756;7.450;2024-03-08T05:27:08;1.20;1.00
19292;DHT22;9779;51.756;7.450;2024-03-08T05:29:33;1.10;1.00
19292;DHT22;9779;51.756;7.450;2024-03-08T05:31:59;1.10;1.00
19292;DHT22;9779;51.756;7.450;2024-03-08T05:34:25;1.10;1.00
19292;DHT22;9779;51.756;7.450;2024-03-08T05:36:51;1.10;99.90
19292;DHT22;9779;51.756;7.450;2024-03-08T05:39:18;1.10;99.90
19292;DHT22;9779;51.756;7.450;2024-03-08T05:41:44;1.10;1.00
19292;DHT22;9779;51.756;7.450;2024-03-08T05:44:11;1.00;1.00
19292;DHT22;9779;51.756;7.450;2024-03-08T05:46:38;1.10;35.00
19292;DHT22;9779;51.756;7.450;2024-03-08T05:49:05;1.00;1.00
19292;DHT22;9779;51.756;7.450;2024-03-08T05:51:35;1.00;1.00
19292;DHT22;9779;51.756;7.450;2024-03-08T05:54:05;1.00;1.00
19292;DHT22;9779;51.756;7.450;2024-03-08T05:56:34;1.00;99.90
19292;DHT22;9779;51.756;7.450;2024-03-08T05:59:00;1.00;1.00
19292;DHT22;9779;51.756;7.450;2024-03-08T06:01:26;1.00;1.00
19292;DHT22;9779;51.756;7.450;2024-03-08T06:03:52;1.00;99.90
19292;DHT22;9779;51.756;7.450;2024-03-08T06:06:21;1.10;99.90
19292;DHT22;9779;51.756;7.450;2024-03-08T06:08:47;1.00;1.00
19292;DHT22;9779;51.756;7.450;2024-03-08T06:11:14;1.00;1.00
19292;DHT22;9779;51.756;7.450;2024-03-08T06:13:40;1.00;1.00
19292;DHT22;9779;51.756;7.450;2024-03-08T06:16:06;1.00;1.00
19292;DHT22;9779;51.756;7.450;2024-03-08T06:18:36;1.00;1.00
19292;DHT22;9779;51.756;7.450;2024-03-08T06:21:05;1.00;1.00
19292;DHT22;9779;51.756;7.450;2024-03-08T06:23:34;1.00;1.00
19292;DHT22;9779;51.756;7.450;2024-03-08T06:26:04;1.00;1.00
19292;DHT22;9779;51.756;7.450;2024-03-08T06:28:30;1.10;1.00
19292;DHT22;9779;51.756;7.450;2024-03-08T06:30:58;1.00;1.00
19292;DHT22;9779;51.756;7.450;2024-03-08T06:33:24;1.00;1.00
19292;DHT22;9779;51.756;7.450;2024-03-08T06:35:52;1.10;10.40
19292;DHT22;9779;51.756;7.450;2024-03-08T06:38:18;1.00;1.00
19292;DHT22;9779;51.756;7.450;2024-03-08T06:40:44;1.00;99.90
19292;DHT22;9779;51.756;7.450;2024-03-08T06:43:13;1.10;99.90
19292;DHT22;9779;51.756;7.450;2024-03-08T06:45:42;1.10;99.90
19292;DHT22;9779;51.756;7.450;2024-03-08T06:48:08;1.10;99.90
19292;DHT22;9779;51.756;7.450;2024-03-08T06:50:35;1.10;99.90
19292;DHT22;9779;51.756;7.450;2024-03-08T06:53:01;1.10;99.90
19292;DHT22;9779;51.756;7.450;2024-03-08T06:55:28;1.10;99.90
19292;DHT22;9779;51.756;7.450;2024-03-08T06:57:54;1.10;99.90
19292;DHT22;9779;51.756;7.450;2024-03-08T07:00:20;1.10;1.00
19292;DHT22;9779;51.756;7.450;2024-03-08T07:02:46;1.10;1.00
19292;DHT22;9779;51.756;7.450;2024-03-08T07:05:14;1.20;99.90
19292;DHT22;9779;51.756;7.450;2024-03-08T07:07:40;1.20;66.50
19292;DHT22;9779;51.756;7.450;2024-03-08T07:10:07;1.20;1.00
19292;DHT22;9779;51.756;7.450;2024-03-08T07:12:37;1.30;1.00
19292;DHT22;9779;51.756;7.450;2024-03-08T07:15:04;1.30;99.90
19292;DHT22;9779;51.756;7.450;2024-03-08T07:17:30;1.30;99.90
19292;DHT22;9779;51.756;7.450;2024-03-08T07:19:56;1.40;99.90
19292;DHT22;9779;51.756;7.450;2024-03-08T07:22:24;1.40;58.40
19292;DHT22;9779;51.756;7.450;2024-03-08T07:24:50;1.40;1.00
19292;DHT22;9779;51.756;7.450;2024-03-08T07:27:41;1.40;1.00
19292;DHT22;9779;51.756;7.450;2024-03-08T07:30:07;1.50;1.00
19292;DHT22;9779;51.756;7.450;2024-03-08T07:32:35;1.50;1.00
19292;DHT22;9779;51.756;7.450;2024-03-08T07:35:01;1.80;1.00
19292;DHT22;9779;51.756;7.450;2024-03-08T07:37:27;1.90;99.90
19292;DHT22;9779;51.756;7.450;2024-03-08T07:39:53;1.90;99.90
19292;DHT22;9779;51.756;7.450;2024-03-08T07:42:18;1.90;1.00
19292;DHT22;9779;51.756;7.450;2024-03-08T07:44:44;1.80;1.00
19292;DHT22;9779;51.756;7.450;2024-03-08T07:47:11;1.80;1.00
19292;DHT22;9779;51.756;7.450;2024-03-08T07:49:37;1.90;99.90
19292;DHT22;9779;51.756;7.450;2024-03-08T07:52:04;1.90;99.90
19292;DHT22;9779;51.756;7.450;2024-03-08T07:54:30;1.90;99.90
19292;DHT22;9779;51.756;7.450;2024-03-08T07:56:56;1.90;99.90
19292;DHT22;9779;51.756;7.450;2024-03-08T07:59:22;2.00;1.00
19292;DHT22;9779;51.756;7.450;2024-03-08T08:01:47;2.00;1.00
19292;DHT22;9779;51.756;7.450;2024-03-08T08:04:13;2.10;1.00
19292;DHT22;9779;51.756;7.450;2024-03-08T08:06:40;2.10;1.00
19292;DHT22;9779;51.756;7.450;2024-03-08T08:09:09;2.20;1.00
19292;DHT22;9779;51.756;7.450;2024-03-08T08:11:41;2.30;1.00
19292;DHT22;9779;51.756;7.450;2024-03-08T08:14:09;2.30;99.90
19292;DHT22;9779;51.756;7.450;2024-03-08T08:16:35;2.40;99.90
19292;DHT22;9779;51.756;7.450;2024-03-08T08:19:03;2.40;99.90
19292;DHT22;9779;51.756;7.450;2024-03-08T08:21:36;2.50;99.90
19292;DHT22;9779;51.756;7.450;2024-03-08T08:24:03;2.50;99.90
19292;DHT22;9779;51.756;7.450;2024-03-08T08:26:29;2.60;99.90
19292;DHT22;9779;51.756;7.450;2024-03-08T08:28:54;2.70;1.00
19292;DHT22;9779;51.756;7.450;2024-03-08T08:31:20;2.80;36.90
19292;DHT22;9779;51.756;7.450;2024-03-08T08:33:45;2.80;1.00
19292;DHT22;9779;51.756;7.450;2024-03-08T08:36:13;2.90;1.00
19292;DHT22;9779;51.756;7.450;2024-03-08T08:38:39;3.00;1.00
19292;DHT22;9779;51.756;7.450;2024-03-08T08:41:05;3.00;99.90
19292;DHT22;9779;51.756;7.450;2024-03-08T08:43:31;3.10;99.90
19292;DHT22;9779;51.756;7.450;2024-03-08T08:45:58;3.20;99.90
19292;DHT22;9779;51.756;7.450;2024-03-08T08:48:24;3.20;99.90
19292;DHT22;9779;51.756;7.450;2024-03-08T08:50:50;3.30;99.90
19292;DHT22;9779;51.756;7.450;2024-03-08T08:55:45;3.60;99.90
19292;DHT22;9779;51.756;7.450;2024-03-08T08:58:11;3.60;99.90
19292;DHT22;9779;51.756;7.450;2024-03-08T09:00:37;3.70;99.90
19292;DHT22;9779;51.756;7.450;2024-03-08T09:03:03;3.70;99.90
19292;DHT22;9779;51.756;7.450;2024-03-08T09:05:29;3.80;1.00
19292;DHT22;9779;51.756;7.450;2024-03-08T09:07:55;3.90;1.00
19292;DHT22;9779;51.756;7.450;2024-03-08T09:10:20;4.00;1.00
19292;DHT22;9779;51.756;7.450;2024-03-08T09:12:46;4.00;1.00
19292;DHT22;9779;51.756;7.450;2024-03-08T09:15:13;4.10;1.00
19292;DHT22;9779;51.756;7.450;2024-03-08T09:17:39;4.20;1.00
19292;DHT22;9779;51.756;7.450;2024-03-08T09:20:07;4.30;93.40
19292;DHT22;9779;51.756;7.450;2024-03-08T09:22:33;4.40;1.00
19292;DHT22;9779;51.756;7.450;2024-03-08T09:24:58;4.50;65.50
19292;DHT22;9779;51.756;7.450;2024-03-08T09:27:24;4.50;1.00
19292;DHT22;9779;51.756;7.450;2024-03-08T09:29:49;4.90;99.90
19292;DHT22;9779;51.756;7.450;2024-03-08T09:32:16;4.70;1.00
19292;DHT22;9779;51.756;7.450;2024-03-08T09:34:42;4.70;1.00
19292;DHT22;9779;51.756;7.450;2024-03-08T09:37:07;4.80;1.00
19292;DHT22;9779;51.756;7.450;2024-03-08T09:39:34;4.90;1.00
19292;DHT22;9779;51.756;7.450;2024-03-08T09:42:03;5.00;1.00
19292;DHT22;9779;51.756;7.450;2024-03-08T09:44:29;5.00;1.00
19292;DHT22;9779;51.756;7.450;2024-03-08T09:46:55;5.10;99.90
19292;DHT22;9779;51.756;7.450;2024-03-08T09:49:21;5.10;1.00
19292;DHT22;9779;51.756;7.450;2024-03-08T09:51:46;5.30;1.00
19292;DHT22;9779;51.756;7.450;2024-03-08T09:54:13;5.40;99.90
19292;DHT22;9779;51.756;7.450;2024-03-08T09:56:43;5.40;99.90
19292;DHT22;9779;51.756;7.450;2024-03-08T09:59:10;5.50;99.90
19292;DHT22;9779;51.756;7.450;2024-03-08T10:01:38;5.60;99.90
19292;DHT22;9779;51.756;7.450;2024-03-08T10:04:04;5.70;99.90
19292;DHT22;9779;51.756;7.450;2024-03-08T10:06:30;5.80;99.90
19292;DHT22;9779;51.756;7.450;2024-03-08T10:08:57;5.80;99.90
19292;DHT22;9779;51.756;7.450;2024-03-08T10:11:25;5.90;99.90
19292;DHT22;9779;51.756;7.450;2024-03-08T10:13:52;6.00;28.20
19292;DHT22;9779;51.756;7.450;2024-03-08T10:16:18;6.10;99.90
19292;DHT22;9779;51.756;7.450;2024-03-08T10:18:46;6.20;1.00
19292;DHT22;9779;51.756;7.450;2024-03-08T10:21:12;6.30;1.00
19292;DHT22;9779;51.756;7.450;2024-03-08T10:23:38;6.40;1.00
19292;DHT22;9779;51.756;7.450;2024-03-08T10:26:14;6.50;99.90
19292;DHT22;9779;51.756;7.450;2024-03-08T10:28:44;6.50;1.00
19292;DHT22;9779;51.756;7.450;2024-03-08T10:31:10;6.50;1.00
19292;DHT22;9779;51.756;7.450;2024-03-08T10:33:36;6.60;1.00
19292;DHT22;9779;51.756;7.450;2024-03-08T10:36:03;6.70;1.00
19292;DHT22;9779;51.756;7.450;2024-03-08T10:38:31;6.80;1.00
19292;DHT22;9779;51.756;7.450;2024-03-08T10:41:01;6.90;1.00
19292;DHT22;9779;51.756;7.450;2024-03-08T10:43:32;7.00;99.90
19292;DHT22;9779;51.756;7.450;2024-03-08T10:46:30;7.00;99.90
19292;DHT22;9779;51.756;7.450;2024-03-08T10:48:57;7.20;99.90
19292;DHT22;9779;51.756;7.450;2024-03-08T10:51:29;7.20;99.90
19292;DHT22;9779;51.756;7.450;2024-03-08T10:53:57;7.30;1.00
19292;DHT22;9779;51.756;7.450;2024-03-08T10:56:23;7.30;99.90
19292;DHT22;9779;51.756;7.450;2024-03-08T10:58:49;7.40;99.90
19292;DHT22;9779;51.756;7.450;2024-03-08T11:01:15;7.60;99.90
19292;DHT22;9779;51.756;7.450;2024-03-08T11:06:07;7.90;99.90
19292;DHT22;9779;51.756;7.450;2024-03-08T11:08:36;7.90;99.90
19292;DHT22;9779;51.756;7.450;2024-03-08T11:13:42;8.10;99.90
19292;DHT22;9779;51.756;7.450;2024-03-08T11:19:05;8.40;99.90
19292;DHT22;9779;51.756;7.450;2024-03-08T11:21:32;8.80;1.00
19292;DHT22;9779;51.756;7.450;2024-03-08T11:24:13;8.80;99.90
19292;DHT22;9779;51.756;7.450;2024-03-08T11:26:40;8.70;99.90
19292;DHT22;9779;51.756;7.450;2024-03-08T11:32:15;8.70;1.00
19292;DHT22;9779;51.756;7.450;2024-03-08T11:34:46;8.70;1.00
19292;DHT22;9779;51.756;7.450;2024-03-08T11:37:19;8.80;1.00
19292;DHT22;9779;51.756;7.450;2024-03-08T11:39:53;8.90;1.00
19292;DHT22;9779;51.756;7.450;2024-03-08T11:42:24;9.20;1.00
19292;DHT22;9779;51.756;7.450;2024-03-08T11:44:53;9.40;1.00
19292;DHT22;9779;51.756;7.450;2024-03-08T11:47:20;9.30;1.00
19292;DHT22;9779;51.756;7.450;2024-03-08T11:49:46;9.40;1.00
19292;DHT22;9779;51.756;7.450;2024-03-08T11:52:14;9.40;1.00
19292;DHT22;9779;51.756;7.450;2024-03-08T11:54:49;9.40;1.00
19292;DHT22;9779;51.756;7.450;2024-03-08T11:57:20;9.40;1.00
19292;DHT22;9779;51.756;7.450;2024-03-08T11:59:54;9.40;1.00
19292;DHT22;9779;51.756;7.450;2024-03-08T12:02:22;9.40;1.00
19292;DHT22;9779;51.756;7.450;2024-03-08T12:04:56;9.60;1.00
19292;DHT22;9779;51.756;7.450;2024-03-08T12:07:23;9.60;1.00
19292;DHT22;9779;51.756;7.450;2024-03-08T12:10:14;9.70;1.00
19292;DHT22;9779;51.756;7.450;2024-03-08T12:12:44;9.70;1.00
19292;DHT22;9779;51.756;7.450;2024-03-08T12:15:09;9.80;1.00
19292;DHT22;9779;51.756;7.450;2024-03-08T12:17:37;9.80;1.00
19292;DHT22;9779;51.756;7.450;2024-03-08T12:20:33;9.70;1.00
19292;DHT22;9779;51.756;7.450;2024-03-08T12:22:59;9.80;1.00
19292;DHT22;9779;51.756;7.450;2024-03-08T12:25:32;10.00;1.00
19292;DHT22;9779;51.756;7.450;2024-03-08T12:38:47;10.50;1.00
19292;DHT22;9779;51.756;7.450;2024-03-08T12:41:19;10.50;1.00
19292;DHT22;9779;51.756;7.450;2024-03-08T12:43:45;10.60;1.00
19292;DHT22;9779;51.756;7.450;2024-03-08T12:46:15;10.90;1.00
19292;DHT22;9779;51.756;7.450;2024-03-08T12:48:42;11.00;1.00
19292;DHT22;9779;51.756;7.450;2024-03-08T12:51:13;11.10;1.00
19292;DHT22;9779;51.756;7.450;2024-03-08T12:53:38;10.90;1.00
19292;DHT22;9779;51.756;7.450;2024-03-08T12:56:06;11.00;1.00
19292;DHT22;9779;51.756;7.450;2024-03-08T12:58:35;11.20;1.00
19292;DHT22;9779;51.756;7.450;2024-03-08T13:01:02;11.30;1.00
19292;DHT22;9779;51.756;7.450;2024-03-08T13:03:30;11.50;1.00
19292;DHT22;9779;51.756;7.450;2024-03-08T13:05:57;11.50;82.50
19292;DHT22;9779;51.756;7.450;2024-03-08T13:08:22;11.40;99.90
19292;DHT22;9779;51.756;7.450;2024-03-08T13:10:50;11.40;99.90
19292;DHT22;9779;51.756;7.450;2024-03-08T13:13:16;11.20;99.90
19292;DHT22;9779;51.756;7.450;2024-03-08T13:15:42;11.20;99.90
19292;DHT22;9779;51.756;7.450;2024-03-08T13:18:08;11.30;99.90
19292;DHT22;9779;51.756;7.450;2024-03-08T13:20:35;11.50;99.90
19292;DHT22;9779;51.756;7.450;2024-03-08T13:23:04;11.60;99.90
19292;DHT22;9779;51.756;7.450;2024-03-08T13:25:30;11.60;99.90
19292;DHT22;9779;51.756;7.450;2024-03-08T13:27:56;11.60;99.90
19292;DHT22;9779;51.756;7.450;2024-03-08T13:50:20;11.90;99.90
19292;DHT22;9779;51.756;7.450;2024-03-08T13:52:49;12.00;99.90
19292;DHT22;9779;51.756;7.450;2024-03-08T13:57:48;13.10;1.00
19292;DHT22;9779;51.756;7.450;2024-03-08T14:00:14;13.00;99.90
19292;DHT22;9779;51.756;7.450;2024-03-08T14:02:40;12.90;99.90
19292;DHT22;9779;51.756;7.450;2024-03-08T14:05:07;13.10;99.90
19292;DHT22;9779;51.756;7.450;2024-03-08T14:07:35;13.20;99.90
19292;DHT22;9779;51.756;7.450;2024-03-08T14:10:01;13.00;99.90
19292;DHT22;9779;51.756;7.450;2024-03-08T14:12:26;13.20;99.90
19292;DHT22;9779;51.756;7.450;2024-03-08T14:14:55;13.70;99.90
19292;DHT22;9779;51.756;7.450;2024-03-08T14:17:23;13.70;99.90
19292;DHT22;9779;51.756;7.450;2024-03-08T14:19:49;13.80;99.90
19292;DHT22;9779;51.756;7.450;2024-03-08T14:22:15;13.90;99.90
19292;DHT22;9779;51.756;7.450;2024-03-08T14:24:41;13.60;99.90
19292;DHT22;9779;51.756;7.450;2024-03-08T14:27:08;13.50;99.90
19292;DHT22;9779;51.756;7.450;2024-03-08T14:29:35;13.30;99.90
19292;DHT22;9779;51.756;7.450;2024-03-08T14:32:00;13.60;99.90
19292;DHT22;9779;51.756;7.450;2024-03-08T14:34:28;13.50;99.90
19292;DHT22;9779;51.756;7.450;2024-03-08T14:36:56;13.20;99.90
19292;DHT22;9779;51.756;7.450;2024-03-08T14:39:22;13.00;99.90
19292;DHT22;9779;51.756;7.450;2024-03-08T14:41:52;13.10;99.90
19292;DHT22;9779;51.756;7.450;2024-03-08T14:44:19;13.00;99.90
19292;DHT22;9779;51.756;7.450;2024-03-08T14:46:45;12.90;99.90
19292;DHT22;9779;51.756;7.450;2024-03-08T14:49:11;12.90;99.90
19292;DHT22;9779;51.756;7.450;2024-03-08T14:51:37;12.70;99.90
19292;DHT22;9779;51.756;7.450;2024-03-08T14:54:03;12.60;99.90
19292;DHT22;9779;51.756;7.450;2024-03-08T14:56:32;12.60;99.90
19292;DHT22;9779;51.756;7.450;2024-03-08T14:58:58;12.40;99.90
19292;DHT22;9779;51.756;7.450;2024-03-08T15:01:25;12.30;99.90
19292;DHT22;9779;51.756;7.450;2024-03-08T15:03:55;12.30;99.90
19292;DHT22;9779;51.756;7.450;2024-03-08T15:06:21;12.40;99.90
19292;DHT22;9779;51.756;7.450;2024-03-08T15:08:47;12.40;99.90
19292;DHT22;9779;51.756;7.450;2024-03-08T15:11:13;12.50;99.90
19292;DHT22;9779;51.756;7.450;2024-03-08T15:13:50;12.40;99.90
19292;DHT22;9779;51.756;7.450;2024-03-08T15:16:19;12.30;99.90
19292;DHT22;9779;51.756;7.450;2024-03-08T15:18:48;12.30;99.90
19292;DHT22;9779;51.756;7.450;2024-03-08T15:21:17;12.40;99.90
19292;DHT22;9779;51.756;7.450;2024-03-08T15:23:45;12.40;99.90
19292;DHT22;9779;51.756;7.450;2024-03-08T15:26:16;12.50;99.90
19292;DHT22;9779;51.756;7.450;2024-03-08T15:28:43;12.50;99.90
19292;DHT22;9779;51.756;7.450;2024-03-08T15:31:10;12.40;99.90
19292;DHT22;9779;51.756;7.450;2024-03-08T15:33:38;12.30;99.90
19292;DHT22;9779;51.756;7.450;2024-03-08T15:36:10;12.30;99.90
19292;DHT22;9779;51.756;7.450;2024-03-08T15:38:37;12.10;99.90
19292;DHT22;9779;51.756;7.450;2024-03-08T15:41:04;12.10;99.90
19292;DHT22;9779;51.756;7.450;2024-03-08T15:43:35;12.20;99.90
19292;DHT22;9779;51.756;7.450;2024-03-08T15:46:08;12.10;99.90
19292;DHT22;9779;51.756;7.450;2024-03-08T15:48:35;12.30;99.90
19292;DHT22;9779;51.756;7.450;2024-03-08T15:51:02;12.10;99.90
19292;DHT22;9779;51.756;7.450;2024-03-08T15:53:28;12.00;99.90
19292;DHT22;9779;51.756;7.450;2024-03-08T15:55:59;11.70;99.90
19292;DHT22;9779;51.756;7.450;2024-03-08T15:58:25;11.50;99.90
19292;DHT22;9779;51.756;7.450;2024-03-08T16:00:51;11.30;99.90
19292;DHT22;9779;51.756;7.450;2024-03-08T16:03:19;11.20;99.90
19292;DHT22;9779;51.756;7.450;2024-03-08T16:05:46;11.10;99.90
19292;DHT22;9779;51.756;7.450;2024-03-08T16:08:17;11.20;99.90
19292;DHT22;9779;51.756;7.450;2024-03-08T16:10:50;10.90;99.90
19292;DHT22;9779;51.756;7.450;2024-03-08T16:13:20;10.80;99.90
19292;DHT22;9779;51.756;7.450;2024-03-08T16:15:51;10.70;99.90
19292;DHT22;9779;51.756;7.450;2024-03-08T16:23:13;10.50;99.90
19292;DHT22;9779;51.756;7.450;2024-03-08T16:25:42;10.40;99.90
19292;DHT22;9779;51.756;7.450;2024-03-08T16:28:09;10.30;99.90
19292;DHT22;9779;51.756;7.450;2024-03-08T16:30:36;10.30;99.90
19292;DHT22;9779;51.756;7.450;2024-03-08T16:33:02;10.30;99.90
19292;DHT22;9779;51.756;7.450;2024-03-08T16:35:28;10.20;99.90
19292;DHT22;9779;51.756;7.450;2024-03-08T16:37:54;10.20;99.90
19292;DHT22;9779;51.756;7.450;2024-03-08T16:40:19;10.10;99.90
19292;DHT22;9779;51.756;7.450;2024-03-08T16:42:46;10.10;99.90
19292;DHT22;9779;51.756;7.450;2024-03-08T16:45:18;10.00;99.90
19292;DHT22;9779;51.756;7.450;2024-03-08T16:47:44;10.00;99.90
19292;DHT22;9779;51.756;7.450;2024-03-08T16:50:10;9.90;99.90
19292;DHT22;9779;51.756;7.450;2024-03-08T16:52:39;9.90;99.90
19292;DHT22;9779;51.756;7.450;2024-03-08T16:55:05;9.90;99.90
19292;DHT22;9779;51.756;7.450;2024-03-08T17:00:18;9.80;99.90